createdAt,value
2022-12-28T00:01:25.385Z,7.70
2022-12-28T00:03:53.316Z,8.13
2022-12-28T00:06:22.428Z,7.83
2022-12-28T00:08:49.163Z,7.10
2022-12-28T00:11:27.847Z,7.87
2022-12-28T00:14:00.711Z,7.83
2022-12-28T00:16:36.408Z,7.90
2022-12-28T00:19:06.648Z,7.50
2022-12-28T00:21:34.247Z,7.80
2022-12-28T00:24:01.566Z,7.67
2022-12-28T00:26:30.938Z,7.87
2022-12-28T00:29:04.040Z,7.37
2022-12-28T00:31:31.585Z,7.63
2022-12-28T00:33:58.113Z,7.93
2022-12-28T00:36:25.110Z,7.33
2022-12-28T00:39:11.558Z,6.77
2022-12-28T00:41:38.022Z,7.43
2022-12-28T00:44:04.662Z,7.83
2022-12-28T00:46:31.193Z,6.83
2022-12-28T00:48:57.666Z,7.73
2022-12-28T00:51:24.121Z,7.63
2022-12-28T00:53:50.847Z,7.13
2022-12-28T00:56:20.051Z,6.73
2022-12-28T00:58:48.180Z,7.47
2022-12-28T01:01:18.091Z,7.33
2022-12-28T01:03:44.800Z,7.30
2022-12-28T01:06:13.182Z,7.00
2022-12-28T01:08:40.587Z,7.10
2022-12-28T01:11:08.906Z,7.47
2022-12-28T01:13:35.766Z,7.00
2022-12-28T01:16:10.811Z,8.10
2022-12-28T01:18:37.441Z,7.10
2022-12-28T01:21:12.071Z,7.77
2022-12-28T01:23:38.660Z,7.63
2022-12-28T01:26:05.622Z,8.47
2022-12-28T01:28:32.155Z,8.13
2022-12-28T01:31:04.247Z,8.10
2022-12-28T01:33:30.729Z,7.90
2022-12-28T01:35:57.978Z,7.93
2022-12-28T01:38:24.513Z,7.97
2022-12-28T01:40:50.984Z,8.17
2022-12-28T01:43:29.503Z,8.27
2022-12-28T01:45:56.628Z,7.53
2022-12-28T01:48:25.451Z,7.63
2022-12-28T01:50:53.592Z,8.47
2022-12-28T01:53:21.505Z,7.93
2022-12-28T01:55:48.852Z,7.77
2022-12-28T01:58:21.438Z,7.50
2022-12-28T02:00:48.163Z,8.40
2022-12-28T02:03:20.030Z,7.83
2022-12-28T02:05:50.753Z,7.50
2022-12-28T02:08:33.276Z,7.13
2022-12-28T02:11:00.265Z,7.33
2022-12-28T02:13:26.768Z,7.60
2022-12-28T02:15:57.192Z,7.30
2022-12-28T02:18:25.363Z,6.87
2022-12-28T02:20:59.936Z,7.20
2022-12-28T02:23:38.747Z,6.67
2022-12-28T02:26:43.283Z,6.57
2022-12-28T02:29:24.883Z,6.53
2022-12-28T02:32:12.898Z,6.30
2022-12-28T02:34:54.699Z,6.73
2022-12-28T02:37:27.187Z,7.00
2022-12-28T02:40:11.428Z,6.27
2022-12-28T02:42:39.242Z,6.63
2022-12-28T02:45:25.313Z,6.43
2022-12-28T02:48:10.399Z,6.40
2022-12-28T02:50:50.143Z,5.60
2022-12-28T02:53:53.988Z,6.03
2022-12-28T02:56:44.794Z,5.17
2022-12-28T02:59:33.112Z,5.47
2022-12-28T03:02:04.154Z,4.70
2022-12-28T03:04:47.305Z,5.37
2022-12-28T03:07:58.304Z,5.03
2022-12-28T03:10:38.488Z,4.77
2022-12-28T03:13:33.687Z,4.50
2022-12-28T03:16:06.471Z,4.50
2022-12-28T03:18:53.376Z,4.80
2022-12-28T03:21:40.542Z,4.60
2022-12-28T03:24:29.795Z,4.20
2022-12-28T03:27:17.128Z,4.13
2022-12-28T03:30:17.326Z,3.90
2022-12-28T03:32:44.579Z,4.20
2022-12-28T03:35:11.309Z,4.67
2022-12-28T03:37:47.333Z,4.00
2022-12-28T03:40:39.530Z,3.53
2022-12-28T03:43:36.257Z,3.70
2022-12-28T03:46:06.232Z,3.40
2022-12-28T03:48:35.331Z,3.87
2022-12-28T03:51:02.216Z,3.40
2022-12-28T03:53:39.138Z,3.33
2022-12-28T03:56:12.393Z,3.40
2022-12-28T03:58:40.172Z,3.40
2022-12-28T04:01:08.309Z,3.20
2022-12-28T04:03:36.774Z,3.10
2022-12-28T04:06:03.555Z,3.20
2022-12-28T04:08:32.133Z,3.10
2022-12-28T04:11:00.446Z,3.30
2022-12-28T04:13:33.482Z,3.07
2022-12-28T04:16:10.073Z,2.80
2022-12-28T04:18:38.554Z,2.80
2022-12-28T04:21:05.705Z,3.17
2022-12-28T04:23:32.722Z,3.10
2022-12-28T04:26:17.855Z,2.97
2022-12-28T04:28:45.859Z,3.40
2022-12-28T04:31:31.037Z,2.90
2022-12-28T04:34:11.127Z,3.10
2022-12-28T04:36:41.861Z,2.97
2022-12-28T04:39:13.204Z,2.90
2022-12-28T04:41:40.202Z,3.17
2022-12-28T04:44:06.752Z,2.80
2022-12-28T04:46:33.451Z,2.80
2022-12-28T04:49:00.951Z,2.83
2022-12-28T04:51:28.864Z,2.50
2022-12-28T04:53:56.687Z,2.73
2022-12-28T04:56:24.329Z,2.43
2022-12-28T04:58:55.351Z,2.50
2022-12-28T05:01:22.227Z,2.33
2022-12-28T05:03:55.019Z,2.70
2022-12-28T05:06:24.512Z,2.90
2022-12-28T05:08:51.531Z,2.60
2022-12-28T05:11:20.832Z,2.40
2022-12-28T05:13:47.707Z,2.60
2022-12-28T05:16:18.847Z,2.30
2022-12-28T05:18:45.645Z,2.40
2022-12-28T05:21:21.387Z,2.50
2022-12-28T05:23:49.041Z,2.13
2022-12-28T05:26:19.037Z,2.43
2022-12-28T05:28:45.858Z,2.50
2022-12-28T05:31:14.980Z,2.17
2022-12-28T05:33:41.768Z,2.47
2022-12-28T05:36:16.813Z,2.77
2022-12-28T05:38:43.864Z,2.20
2022-12-28T05:41:25.159Z,2.40
2022-12-28T05:43:52.364Z,2.20
2022-12-28T05:46:21.708Z,2.40
2022-12-28T05:48:48.322Z,2.57
2022-12-28T05:51:19.120Z,2.30
2022-12-28T05:53:45.984Z,2.07
2022-12-28T05:56:18.391Z,2.53
2022-12-28T05:58:46.911Z,2.27
2022-12-28T06:01:19.065Z,2.57
2022-12-28T06:03:47.847Z,2.10
2022-12-28T06:06:19.014Z,2.10
2022-12-28T06:08:47.664Z,2.00
2022-12-28T06:11:17.113Z,2.20
2022-12-28T06:13:44.154Z,2.10
2022-12-28T06:16:22.673Z,1.80
2022-12-28T06:18:51.731Z,2.47
2022-12-28T06:21:22.277Z,2.00
2022-12-28T06:23:49.392Z,1.97
2022-12-28T06:26:18.579Z,2.00
2022-12-28T06:28:45.779Z,2.13
2022-12-28T06:31:16.659Z,1.90
2022-12-28T06:33:43.818Z,1.90
2022-12-28T06:36:20.217Z,1.80
2022-12-28T06:38:48.637Z,1.93
2022-12-28T06:41:16.594Z,1.87
2022-12-28T06:43:43.688Z,2.10
2022-12-28T06:46:11.657Z,1.93
2022-12-28T06:48:38.434Z,1.97
2022-12-28T06:51:11.976Z,1.83
2022-12-28T06:53:39.326Z,2.00
2022-12-28T06:56:13.386Z,2.20
2022-12-28T06:58:40.110Z,2.20
2022-12-28T07:01:28.253Z,2.40
2022-12-28T07:03:56.960Z,1.83
2022-12-28T07:06:26.484Z,1.73
2022-12-28T07:09:00.235Z,1.80
2022-12-28T07:11:28.929Z,1.97
2022-12-28T07:13:56.356Z,1.83
2022-12-28T07:16:24.446Z,1.83
2022-12-28T07:18:51.032Z,2.00
2022-12-28T07:21:24.120Z,2.03
2022-12-28T07:23:51.990Z,1.90
2022-12-28T07:26:21.187Z,2.17
2022-12-28T07:28:49.570Z,1.90
2022-12-28T07:31:19.829Z,2.07
2022-12-28T07:33:47.278Z,1.70
2022-12-28T07:36:17.656Z,1.90
2022-12-28T07:38:44.638Z,2.17
2022-12-28T07:41:20.642Z,2.10
2022-12-28T07:43:47.765Z,1.80
2022-12-28T07:46:22.868Z,2.10
2022-12-28T07:48:50.547Z,2.00
2022-12-28T07:51:27.036Z,1.90
2022-12-28T07:53:54.621Z,2.10
2022-12-28T07:56:22.627Z,1.90
2022-12-28T08:01:18.155Z,2.57
2022-12-28T08:03:45.084Z,2.30
2022-12-28T08:06:13.315Z,2.37
2022-12-28T08:08:42.492Z,1.77
2022-12-28T08:11:11.991Z,2.60
2022-12-28T08:13:41.269Z,2.17
2022-12-28T08:16:10.031Z,2.00
2022-12-28T08:18:36.596Z,1.77
2022-12-28T08:21:18.364Z,1.93
2022-12-28T08:23:45.313Z,2.23
2022-12-28T08:26:17.861Z,2.10
2022-12-28T08:28:45.585Z,1.90
2022-12-28T08:31:17.730Z,2.03
2022-12-28T08:33:44.199Z,2.23
2022-12-28T08:36:11.445Z,2.23
2022-12-28T08:38:39.568Z,2.13
2022-12-28T08:41:09.153Z,1.90
2022-12-28T08:43:35.733Z,1.80
2022-12-28T08:46:12.468Z,1.87
2022-12-28T08:48:39.557Z,1.97
2022-12-28T08:51:11.407Z,2.00
2022-12-28T08:53:38.410Z,1.93
2022-12-28T08:56:06.808Z,1.90
2022-12-28T08:58:33.928Z,1.50
2022-12-28T09:01:14.972Z,1.90
2022-12-28T09:03:43.867Z,1.70
2022-12-28T09:06:13.704Z,1.60
2022-12-28T09:08:42.347Z,1.70
2022-12-28T09:11:11.614Z,1.73
2022-12-28T09:13:38.783Z,1.83
2022-12-28T09:16:11.250Z,2.17
2022-12-28T09:18:39.010Z,2.00
2022-12-28T09:21:13.962Z,1.80
2022-12-28T09:23:42.952Z,1.90
2022-12-28T09:26:18.600Z,1.67
2022-12-28T09:28:53.606Z,1.30
2022-12-28T09:31:22.681Z,1.90
2022-12-28T09:36:55.817Z,1.60
2022-12-28T09:39:24.836Z,1.80
2022-12-28T09:41:56.403Z,1.83
2022-12-28T09:44:41.446Z,1.40
2022-12-28T09:47:16.771Z,2.13
2022-12-28T09:50:26.870Z,1.90
2022-12-28T09:53:20.071Z,2.07
2022-12-28T09:55:57.829Z,1.67
2022-12-28T09:58:24.564Z,1.70
2022-12-28T10:00:56.013Z,2.00
2022-12-28T10:03:32.046Z,1.70
2022-12-28T10:05:59.279Z,1.67
2022-12-28T10:08:27.602Z,1.67
2022-12-28T10:10:59.270Z,1.60
2022-12-28T10:14:00.761Z,1.70
2022-12-28T10:16:20.164Z,1.40
2022-12-28T10:18:48.336Z,1.80
2022-12-28T10:21:19.960Z,1.50
2022-12-28T10:26:42.829Z,1.60
2022-12-28T10:29:16.889Z,1.60
2022-12-28T10:31:43.501Z,1.40
2022-12-28T10:34:21.085Z,1.50
2022-12-28T10:36:49.091Z,1.20
2022-12-28T10:39:20.490Z,1.50
2022-12-28T10:41:48.032Z,1.80
2022-12-28T10:44:38.799Z,1.50
2022-12-28T10:47:18.114Z,1.60
2022-12-28T10:50:18.605Z,1.50
2022-12-28T10:52:37.847Z,1.20
2022-12-28T10:55:31.833Z,1.40
2022-12-28T10:58:30.104Z,1.50
2022-12-28T11:01:04.181Z,1.50
2022-12-28T11:03:35.399Z,1.63
2022-12-28T11:06:26.385Z,1.50
2022-12-28T11:11:48.892Z,1.50
2022-12-28T11:14:35.837Z,1.40
2022-12-28T11:17:17.506Z,1.43
2022-12-28T11:19:44.204Z,1.60
2022-12-28T11:22:13.220Z,1.40
2022-12-28T11:24:40.577Z,1.50
2022-12-28T11:27:13.606Z,1.57
2022-12-28T11:29:44.874Z,1.60
2022-12-28T11:32:32.489Z,1.73
2022-12-28T11:35:00.293Z,1.10
2022-12-28T11:37:26.924Z,1.40
2022-12-28T11:39:53.861Z,1.40
2022-12-28T11:42:40.985Z,1.13
2022-12-28T11:45:16.564Z,1.30
2022-12-28T11:47:43.492Z,1.40
2022-12-28T11:50:34.584Z,1.60
2022-12-28T11:53:03.969Z,1.30
2022-12-28T11:55:43.991Z,1.67
2022-12-28T11:58:39.679Z,1.13
2022-12-28T12:01:09.590Z,1.23
2022-12-28T12:03:58.006Z,1.20
2022-12-28T12:06:42.563Z,1.20
2022-12-28T12:09:21.191Z,1.40
2022-12-28T12:11:49.357Z,1.20
2022-12-28T12:14:21.638Z,1.20
2022-12-28T12:16:59.865Z,1.50
2022-12-28T12:19:30.120Z,1.30
2022-12-28T12:22:03.006Z,1.20
2022-12-28T12:24:37.268Z,1.20
2022-12-28T12:27:36.472Z,1.13
2022-12-28T12:30:07.855Z,1.27
2022-12-28T12:32:47.642Z,1.10
2022-12-28T12:35:16.606Z,1.00
2022-12-28T12:37:56.656Z,1.10
2022-12-28T12:40:42.061Z,1.00
2022-12-28T12:43:27.708Z,1.07
2022-12-28T12:46:21.940Z,1.10
2022-12-28T12:49:11.821Z,1.27
2022-12-28T12:52:03.149Z,1.20
2022-12-28T12:55:07.076Z,1.20
2022-12-28T12:57:44.999Z,1.10
2022-12-28T13:00:19.745Z,1.20
2022-12-28T13:03:13.789Z,1.07
2022-12-28T13:05:45.620Z,0.93
2022-12-28T13:08:22.782Z,1.17
2022-12-28T13:10:50.227Z,1.10
2022-12-28T13:13:37.924Z,1.30
2022-12-28T13:16:09.635Z,1.17
2022-12-28T13:18:45.003Z,1.23
2022-12-28T13:24:54.664Z,1.10
2022-12-28T13:27:47.132Z,1.00
2022-12-28T13:31:08.191Z,1.30
2022-12-28T13:37:40.530Z,1.30
2022-12-28T13:40:17.865Z,1.10
2022-12-28T13:43:30.449Z,1.00
2022-12-28T13:46:08.108Z,1.00
2022-12-28T13:48:39.920Z,1.43
2022-12-28T13:51:13.494Z,1.60
2022-12-28T13:53:45.775Z,1.30
2022-12-28T13:56:14.579Z,1.23
2022-12-28T13:58:48.296Z,2.20
2022-12-28T14:01:19.320Z,1.10
2022-12-28T14:03:46.769Z,1.10
2022-12-28T14:06:16.635Z,1.30
2022-12-28T14:08:44.563Z,1.50
2022-12-28T14:11:11.666Z,1.20
2022-12-28T14:13:39.490Z,1.30
2022-12-28T14:16:07.556Z,1.07
2022-12-28T14:18:34.705Z,1.10
2022-12-28T14:21:02.665Z,1.10
2022-12-28T14:23:31.933Z,1.10
2022-12-28T14:26:04.561Z,1.20
2022-12-28T14:28:39.341Z,1.00
2022-12-28T14:31:09.424Z,1.07
2022-12-28T14:33:55.313Z,1.10
2022-12-28T14:36:26.349Z,1.10
2022-12-28T14:38:59.711Z,1.00
2022-12-28T14:41:34.588Z,1.23
2022-12-28T14:44:03.528Z,1.93
2022-12-28T14:46:36.175Z,1.20
2022-12-28T14:49:28.346Z,1.20
2022-12-28T14:52:35.244Z,1.03
2022-12-28T14:55:21.906Z,1.70
2022-12-28T14:57:51.958Z,2.70
2022-12-28T15:00:34.110Z,1.20
2022-12-28T15:03:17.844Z,0.93
2022-12-28T15:05:51.928Z,1.70
2022-12-28T15:08:19.096Z,2.00
2022-12-28T15:10:50.419Z,1.30
2022-12-28T15:13:18.286Z,2.10
2022-12-28T15:15:45.974Z,1.43
2022-12-28T15:18:12.502Z,1.40
2022-12-28T15:20:39.331Z,1.20
2022-12-28T15:23:06.061Z,1.60
2022-12-28T15:25:34.680Z,1.53
2022-12-28T15:28:01.220Z,1.63
2022-12-28T15:30:29.290Z,1.30
2022-12-28T15:32:56.536Z,1.20
2022-12-28T15:35:23.251Z,1.10
2022-12-28T15:37:49.920Z,1.10
2022-12-28T15:40:16.519Z,1.00
2022-12-28T15:42:45.309Z,1.43
2022-12-28T15:45:12.623Z,1.10
2022-12-28T15:47:39.235Z,1.43
2022-12-28T15:50:07.322Z,0.80
2022-12-28T15:52:34.191Z,1.00
2022-12-28T15:55:00.824Z,1.53
2022-12-28T15:57:28.056Z,2.37
2022-12-28T15:59:55.561Z,1.43
2022-12-28T16:02:23.332Z,0.87
2022-12-28T16:04:50.385Z,1.20
2022-12-28T16:07:19.156Z,1.40
2022-12-28T16:09:46.251Z,2.00
2022-12-28T16:12:17.646Z,1.27
2022-12-28T16:14:47.639Z,1.67
2022-12-28T16:17:15.230Z,1.13
2022-12-28T16:19:41.887Z,0.93
2022-12-28T16:22:08.863Z,1.70
2022-12-28T16:24:36.368Z,1.90
2022-12-28T16:27:03.325Z,1.90
2022-12-28T16:29:30.070Z,1.20
2022-12-28T16:31:58.759Z,1.27
2022-12-28T16:34:25.578Z,1.50
2022-12-28T16:36:57.004Z,1.60
2022-12-28T16:39:23.992Z,1.50
2022-12-28T16:41:50.844Z,1.10
2022-12-28T16:44:20.935Z,1.23
2022-12-28T16:46:48.327Z,1.30
2022-12-28T16:49:15.600Z,1.10
2022-12-28T16:51:45.091Z,1.20
2022-12-28T16:54:20.975Z,1.10
2022-12-28T16:56:48.956Z,1.40
2022-12-28T16:59:25.160Z,1.30
2022-12-28T17:01:53.717Z,2.10
2022-12-28T17:04:20.846Z,1.50
2022-12-28T17:06:51.994Z,1.30
2022-12-28T17:09:19.959Z,1.70
2022-12-28T17:11:48.491Z,1.30
2022-12-28T17:14:24.529Z,1.10
2022-12-28T17:17:01.982Z,1.50
2022-12-28T17:19:28.702Z,1.40
2022-12-28T17:21:55.283Z,1.40
2022-12-28T17:24:21.935Z,1.70
2022-12-28T17:26:48.920Z,1.27
2022-12-28T17:29:15.613Z,1.20
2022-12-28T17:31:43.649Z,1.20
2022-12-28T17:34:10.961Z,1.10
2022-12-28T17:36:37.601Z,1.17
2022-12-28T17:39:04.623Z,1.20
2022-12-28T17:41:31.564Z,1.00
2022-12-28T17:43:59.937Z,1.30
2022-12-28T17:46:28.882Z,1.27
2022-12-28T17:48:57.562Z,1.20
2022-12-28T17:51:25.468Z,1.20
2022-12-28T17:53:54.712Z,1.40
2022-12-28T17:56:21.302Z,1.13
2022-12-28T17:58:49.442Z,1.30
2022-12-28T18:01:16.310Z,1.10
2022-12-28T18:03:43.123Z,1.00
2022-12-28T18:06:09.993Z,1.40
2022-12-28T18:08:36.547Z,1.20
2022-12-28T18:11:03.116Z,1.30
2022-12-28T18:13:30.112Z,3.50
2022-12-28T18:15:56.869Z,1.60
2022-12-28T18:18:23.529Z,1.33
2022-12-28T18:21:01.470Z,1.50
2022-12-28T18:23:28.591Z,1.37
2022-12-28T18:26:09.980Z,1.20
2022-12-28T18:28:37.012Z,1.50
2022-12-28T18:31:04.443Z,1.20
2022-12-28T18:33:32.156Z,1.70
2022-12-28T18:36:01.569Z,1.40
2022-12-28T18:38:28.242Z,1.77
2022-12-28T18:40:57.222Z,1.80
2022-12-28T18:43:24.724Z,1.70
2022-12-28T18:45:59.728Z,1.60
2022-12-28T18:48:27.229Z,1.57
2022-12-28T18:50:59.559Z,1.90
2022-12-28T18:53:27.517Z,3.93
2022-12-28T18:56:01.931Z,1.63
2022-12-28T18:58:30.640Z,1.93
2022-12-28T19:04:10.068Z,1.77
2022-12-28T19:06:37.788Z,2.10
2022-12-28T19:09:06.069Z,6.20
2022-12-28T19:11:32.784Z,2.10
2022-12-28T19:13:59.295Z,1.63
2022-12-28T19:16:31.013Z,1.50
2022-12-28T19:18:58.846Z,1.63
2022-12-28T19:21:28.155Z,1.47
2022-12-28T19:23:56.680Z,2.70
2022-12-28T19:26:24.725Z,2.77
2022-12-28T19:28:52.338Z,1.80
2022-12-28T19:31:18.965Z,1.90
2022-12-28T19:33:45.750Z,1.90
2022-12-28T19:36:12.674Z,1.80
2022-12-28T19:38:39.310Z,1.90
2022-12-28T19:41:08.919Z,3.93
2022-12-28T19:43:36.404Z,2.23
2022-12-28T19:46:06.065Z,2.07
2022-12-28T19:48:33.078Z,2.70
2022-12-28T19:50:59.808Z,2.13
2022-12-28T19:53:27.667Z,1.90
2022-12-28T19:56:04.847Z,1.90
2022-12-28T19:58:32.410Z,2.70
2022-12-28T20:01:17.563Z,2.07
2022-12-28T20:03:45.354Z,1.57
2022-12-28T20:06:22.202Z,1.70
2022-12-28T20:08:50.954Z,3.80
2022-12-28T20:11:18.802Z,2.07
2022-12-28T20:13:51.264Z,2.57
2022-12-28T20:16:18.123Z,1.27
2022-12-28T20:18:49.075Z,1.60
2022-12-28T20:21:19.641Z,1.50
2022-12-28T20:23:48.366Z,1.30
2022-12-28T20:26:16.153Z,1.53
2022-12-28T20:28:42.933Z,1.57
2022-12-28T20:31:13.159Z,1.43
2022-12-28T20:33:40.986Z,2.13
2022-12-28T20:36:14.315Z,1.60
2022-12-28T20:38:41.360Z,1.83
2022-12-28T20:41:35.377Z,1.60
2022-12-28T20:44:05.148Z,1.60
2022-12-28T20:46:31.832Z,1.53
2022-12-28T20:48:59.197Z,1.90
2022-12-28T20:51:26.643Z,1.90
2022-12-28T20:53:53.742Z,1.80
2022-12-28T20:56:21.657Z,1.83
2022-12-28T20:58:48.668Z,1.70
2022-12-28T21:01:16.421Z,1.60
2022-12-28T21:03:44.349Z,1.50
2022-12-28T21:06:11.679Z,2.07
2022-12-28T21:08:38.671Z,2.67
2022-12-28T21:11:05.778Z,2.10
2022-12-28T21:13:32.446Z,2.20
2022-12-28T21:16:02.445Z,2.53
2022-12-28T21:18:29.791Z,4.23
2022-12-28T21:20:58.754Z,15.33
2022-12-28T21:23:25.656Z,2.00
2022-12-28T21:25:52.275Z,2.20
2022-12-28T21:28:18.805Z,2.63
2022-12-28T21:30:53.324Z,1.97
2022-12-28T21:33:19.997Z,2.33
2022-12-28T21:36:04.192Z,2.17
2022-12-28T21:38:32.242Z,2.27
2022-12-28T21:41:01.133Z,2.10
2022-12-28T21:43:28.686Z,2.20
2022-12-28T21:46:02.649Z,2.00
2022-12-28T21:48:34.321Z,2.10
2022-12-28T21:51:27.941Z,1.97
2022-12-28T21:53:55.148Z,2.17
2022-12-28T21:56:21.662Z,2.00
2022-12-28T21:58:48.282Z,2.23
2022-12-28T22:01:33.491Z,2.70
2022-12-28T22:04:18.730Z,2.10
2022-12-28T22:06:45.253Z,2.47
2022-12-28T22:09:30.340Z,2.37
2022-12-28T22:12:15.299Z,2.30
2022-12-28T22:14:41.837Z,2.67
2022-12-28T22:17:13.873Z,2.57
2022-12-28T22:19:41.017Z,2.43
2022-12-28T22:22:07.626Z,2.17
2022-12-28T22:24:34.184Z,2.40
2022-12-28T22:27:00.751Z,2.50
2022-12-28T22:29:27.234Z,2.67
2022-12-28T22:31:53.846Z,2.70
2022-12-28T22:34:20.405Z,2.47
2022-12-28T22:36:46.948Z,2.10
2022-12-28T22:39:13.510Z,2.30
2022-12-28T22:41:40.042Z,2.17
2022-12-28T22:44:06.567Z,2.17
2022-12-28T22:46:33.284Z,2.37
2022-12-28T22:48:59.931Z,1.90
2022-12-28T22:51:26.447Z,2.87
2022-12-28T22:53:52.952Z,2.20
2022-12-28T22:56:22.344Z,2.10
2022-12-28T22:58:48.959Z,2.53
2022-12-28T23:01:18.072Z,2.37
2022-12-28T23:03:47.210Z,2.33
2022-12-28T23:06:17.581Z,2.37
2022-12-28T23:08:44.957Z,2.30
2022-12-28T23:11:32.663Z,2.10
2022-12-28T23:14:21.965Z,2.33
2022-12-28T23:16:49.168Z,2.30
2022-12-28T23:19:34.834Z,2.17
2022-12-28T23:22:21.802Z,2.43
2022-12-28T23:25:07.229Z,2.10
2022-12-28T23:27:42.702Z,2.40
2022-12-28T23:30:13.429Z,2.47
2022-12-28T23:32:40.419Z,2.43
2022-12-28T23:35:07.237Z,2.80
2022-12-28T23:37:34.249Z,2.87
2022-12-28T23:40:00.730Z,2.40
2022-12-28T23:42:27.376Z,2.20
2022-12-28T23:44:53.894Z,2.53
2022-12-28T23:47:20.743Z,2.60
2022-12-28T23:49:47.258Z,2.57
2022-12-28T23:52:13.738Z,2.73
2022-12-28T23:54:40.307Z,2.50
2022-12-28T23:57:06.845Z,2.50
2022-12-28T23:59:33.395Z,2.60
